sensor_id;sensor_type;location;lat;lon;timestamp;temperature;humidity
13944;DHT22;7044;53.286;8.534;2023-01-24T00:00:52;3.30;99.90
13944;DHT22;7044;53.286;8.534;2023-01-24T00:03:19;3.30;99.90
13944;DHT22;7044;53.286;8.534;2023-01-24T00:05:47;3.30;99.90
13944;DHT22;7044;53.286;8.534;2023-01-24T00:08:16;3.30;99.90
13944;DHT22;7044;53.286;8.534;2023-01-24T00:10:44;3.30;99.90
13944;DHT22;7044;53.286;8.534;2023-01-24T00:13:12;3.30;99.90
13944;DHT22;7044;53.286;8.534;2023-01-24T00:15:40;3.30;99.90
13944;DHT22;7044;53.286;8.534;2023-01-24T00:18:07;3.30;99.90
13944;DHT22;7044;53.286;8.534;2023-01-24T00:20:34;3.30;99.90
13944;DHT22;7044;53.286;8.534;2023-01-24T00:23:01;3.30;99.90
13944;DHT22;7044;53.286;8.534;2023-01-24T00:25:28;3.30;99.90
13944;DHT22;7044;53.286;8.534;2023-01-24T00:27:54;3.20;99.90
13944;DHT22;7044;53.286;8.534;2023-01-24T00:30:21;3.20;99.90
13944;DHT22;7044;53.286;8.534;2023-01-24T00:32:50;3.30;99.90
13944;DHT22;7044;53.286;8.534;2023-01-24T00:35:17;3.30;99.90
13944;DHT22;7044;53.286;8.534;2023-01-24T00:37:43;3.30;99.90
13944;DHT22;7044;53.286;8.534;2023-01-24T00:40:11;3.30;99.90
13944;DHT22;7044;53.286;8.534;2023-01-24T00:42:37;3.20;99.90
13944;DHT22;7044;53.286;8.534;2023-01-24T00:45:05;3.30;99.90
13944;DHT22;7044;53.286;8.534;2023-01-24T00:47:32;3.20;99.90
13944;DHT22;7044;53.286;8.534;2023-01-24T00:50:00;3.20;99.90
13944;DHT22;7044;53.286;8.534;2023-01-24T00:52:27;3.20;99.90
13944;DHT22;7044;53.286;8.534;2023-01-24T00:54:54;3.10;99.90
13944;DHT22;7044;53.286;8.534;2023-01-24T00:57:21;3.10;99.90
13944;DHT22;7044;53.286;8.534;2023-01-24T00:59:49;3.20;99.90
13944;DHT22;7044;53.286;8.534;2023-01-24T01:02:16;3.20;99.90
13944;DHT22;7044;53.286;8.534;2023-01-24T01:04:43;3.20;99.90
13944;DHT22;7044;53.286;8.534;2023-01-24T01:07:11;3.20;99.90
13944;DHT22;7044;53.286;8.534;2023-01-24T01:09:38;3.20;99.90
13944;DHT22;7044;53.286;8.534;2023-01-24T01:12:05;3.20;99.90
13944;DHT22;7044;53.286;8.534;2023-01-24T01:14:32;3.10;99.90
13944;DHT22;7044;53.286;8.534;2023-01-24T01:16:59;3.20;99.90
13944;DHT22;7044;53.286;8.534;2023-01-24T01:19:26;3.20;99.90
13944;DHT22;7044;53.286;8.534;2023-01-24T01:21:53;3.10;99.90
13944;DHT22;7044;53.286;8.534;2023-01-24T01:24:21;3.10;99.90
13944;DHT22;7044;53.286;8.534;2023-01-24T01:26:48;3.10;99.90
13944;DHT22;7044;53.286;8.534;2023-01-24T01:29:15;3.10;99.90
13944;DHT22;7044;53.286;8.534;2023-01-24T01:31:42;3.20;99.90
13944;DHT22;7044;53.286;8.534;2023-01-24T01:34:10;3.20;99.90
13944;DHT22;7044;53.286;8.534;2023-01-24T01:36:36;3.10;99.90
13944;DHT22;7044;53.286;8.534;2023-01-24T01:39:04;3.20;99.90
13944;DHT22;7044;53.286;8.534;2023-01-24T01:41:32;3.20;99.90
13944;DHT22;7044;53.286;8.534;2023-01-24T01:44:17;3.20;99.90
13944;DHT22;7044;53.286;8.534;2023-01-24T01:47:02;3.10;99.90
13944;DHT22;7044;53.286;8.534;2023-01-24T01:49:29;3.10;99.90
13944;DHT22;7044;53.286;8.534;2023-01-24T01:52:00;3.10;99.90
13944;DHT22;7044;53.286;8.534;2023-01-24T01:54:30;3.10;99.90
13944;DHT22;7044;53.286;8.534;2023-01-24T01:57:02;3.10;99.90
13944;DHT22;7044;53.286;8.534;2023-01-24T01:59:33;3.10;99.90
13944;DHT22;7044;53.286;8.534;2023-01-24T02:02:03;3.10;99.90
13944;DHT22;7044;53.286;8.534;2023-01-24T02:04:33;3.10;99.90
13944;DHT22;7044;53.286;8.534;2023-01-24T02:07:03;3.10;99.90
13944;DHT22;7044;53.286;8.534;2023-01-24T02:09:33;3.10;99.90
13944;DHT22;7044;53.286;8.534;2023-01-24T02:12:04;3.10;99.90
13944;DHT22;7044;53.286;8.534;2023-01-24T02:14:32;3.10;99.90
13944;DHT22;7044;53.286;8.534;2023-01-24T02:17:31;3.20;99.90
13944;DHT22;7044;53.286;8.534;2023-01-24T02:20:26;3.10;99.90
13944;DHT22;7044;53.286;8.534;2023-01-24T02:23:06;3.20;99.90
13944;DHT22;7044;53.286;8.534;2023-01-24T02:25:37;3.10;99.90
13944;DHT22;7044;53.286;8.534;2023-01-24T02:28:08;3.20;99.90
13944;DHT22;7044;53.286;8.534;2023-01-24T02:30:36;3.10;99.90
13944;DHT22;7044;53.286;8.534;2023-01-24T02:33:11;3.10;99.90
13944;DHT22;7044;53.286;8.534;2023-01-24T02:35:39;3.10;99.90
13944;DHT22;7044;53.286;8.534;2023-01-24T02:38:13;3.10;99.90
13944;DHT22;7044;53.286;8.534;2023-01-24T02:40:41;3.10;99.90
13944;DHT22;7044;53.286;8.534;2023-01-24T02:43:12;3.10;99.90
13944;DHT22;7044;53.286;8.534;2023-01-24T02:45:40;3.20;99.90
13944;DHT22;7044;53.286;8.534;2023-01-24T02:48:07;3.20;99.90
13944;DHT22;7044;53.286;8.534;2023-01-24T02:50:34;3.20;99.90
13944;DHT22;7044;53.286;8.534;2023-01-24T02:53:14;3.20;99.90
13944;DHT22;7044;53.286;8.534;2023-01-24T02:55:57;3.20;99.90
13944;DHT22;7044;53.286;8.534;2023-01-24T02:58:43;3.20;99.90
13944;DHT22;7044;53.286;8.534;2023-01-24T03:01:10;3.20;99.90
13944;DHT22;7044;53.286;8.534;2023-01-24T03:03:37;3.20;99.90
13944;DHT22;7044;53.286;8.534;2023-01-24T03:06:04;3.20;99.90
13944;DHT22;7044;53.286;8.534;2023-01-24T03:08:33;3.20;99.90
13944;DHT22;7044;53.286;8.534;2023-01-24T03:11:00;3.10;99.90
13944;DHT22;7044;53.286;8.534;2023-01-24T03:13:27;3.10;99.90
13944;DHT22;7044;53.286;8.534;2023-01-24T03:16:14;3.10;99.90
13944;DHT22;7044;53.286;8.534;2023-01-24T03:18:58;3.10;99.90
13944;DHT22;7044;53.286;8.534;2023-01-24T03:21:43;3.20;99.90
13944;DHT22;7044;53.286;8.534;2023-01-24T03:24:27;3.10;99.90
13944;DHT22;7044;53.286;8.534;2023-01-24T03:27:12;3.20;99.90
13944;DHT22;7044;53.286;8.534;2023-01-24T03:29:56;3.20;99.90
13944;DHT22;7044;53.286;8.534;2023-01-24T03:32:43;3.20;99.90
13944;DHT22;7044;53.286;8.534;2023-01-24T03:35:27;3.20;99.90
13944;DHT22;7044;53.286;8.534;2023-01-24T03:37:54;3.20;99.90
13944;DHT22;7044;53.286;8.534;2023-01-24T03:40:38;3.20;99.90
13944;DHT22;7044;53.286;8.534;2023-01-24T03:43:05;3.20;99.90
13944;DHT22;7044;53.286;8.534;2023-01-24T03:45:33;3.10;99.90
13944;DHT22;7044;53.286;8.534;2023-01-24T03:48:04;3.20;99.90
13944;DHT22;7044;53.286;8.534;2023-01-24T03:50:36;3.20;99.90
13944;DHT22;7044;53.286;8.534;2023-01-24T03:53:22;3.20;99.90
13944;DHT22;7044;53.286;8.534;2023-01-24T03:55:51;3.20;99.90
13944;DHT22;7044;53.286;8.534;2023-01-24T03:58:19;3.20;99.90
13944;DHT22;7044;53.286;8.534;2023-01-24T04:00:45;3.20;99.90
13944;DHT22;7044;53.286;8.534;2023-01-24T04:03:14;3.20;99.90
13944;DHT22;7044;53.286;8.534;2023-01-24T04:05:41;3.20;99.90
13944;DHT22;7044;53.286;8.534;2023-01-24T04:08:07;3.20;99.90
13944;DHT22;7044;53.286;8.534;2023-01-24T04:10:35;3.20;99.90
13944;DHT22;7044;53.286;8.534;2023-01-24T04:13:01;3.20;99.90
13944;DHT22;7044;53.286;8.534;2023-01-24T04:15:30;3.10;99.90
13944;DHT22;7044;53.286;8.534;2023-01-24T04:17:59;3.20;99.90
13944;DHT22;7044;53.286;8.534;2023-01-24T04:20:30;3.10;99.90
13944;DHT22;7044;53.286;8.534;2023-01-24T04:23:00;3.20;99.90
13944;DHT22;7044;53.286;8.534;2023-01-24T04:25:27;3.20;99.90
13944;DHT22;7044;53.286;8.534;2023-01-24T04:27:55;3.20;99.90
13944;DHT22;7044;53.286;8.534;2023-01-24T04:30:22;3.20;99.90
13944;DHT22;7044;53.286;8.534;2023-01-24T04:32:49;3.20;99.90
13944;DHT22;7044;53.286;8.534;2023-01-24T04:35:17;3.30;99.90
13944;DHT22;7044;53.286;8.534;2023-01-24T04:37:46;3.20;99.90
13944;DHT22;7044;53.286;8.534;2023-01-24T04:40:13;3.20;99.90
13944;DHT22;7044;53.286;8.534;2023-01-24T04:42:40;3.20;99.90
13944;DHT22;7044;53.286;8.534;2023-01-24T04:45:08;3.20;99.90
13944;DHT22;7044;53.286;8.534;2023-01-24T04:47:36;3.20;99.90
13944;DHT22;7044;53.286;8.534;2023-01-24T04:50:03;3.20;99.90
13944;DHT22;7044;53.286;8.534;2023-01-24T04:52:30;3.20;99.90
13944;DHT22;7044;53.286;8.534;2023-01-24T04:54:59;3.10;99.90
13944;DHT22;7044;53.286;8.534;2023-01-24T04:57:25;3.10;99.90
13944;DHT22;7044;53.286;8.534;2023-01-24T04:59:52;3.20;99.90
13944;DHT22;7044;53.286;8.534;2023-01-24T05:02:19;3.20;99.90
13944;DHT22;7044;53.286;8.534;2023-01-24T05:04:46;3.20;99.90
13944;DHT22;7044;53.286;8.534;2023-01-24T05:07:13;3.20;99.90
13944;DHT22;7044;53.286;8.534;2023-01-24T05:09:40;3.20;99.90
13944;DHT22;7044;53.286;8.534;2023-01-24T05:12:08;3.20;99.90
13944;DHT22;7044;53.286;8.534;2023-01-24T05:14:35;3.20;99.90
13944;DHT22;7044;53.286;8.534;2023-01-24T05:17:02;3.20;99.90
13944;DHT22;7044;53.286;8.534;2023-01-24T05:19:29;3.20;99.90
13944;DHT22;7044;53.286;8.534;2023-01-24T05:21:56;3.80;99.90
13944;DHT22;7044;53.286;8.534;2023-01-24T05:24:22;3.20;99.90
13944;DHT22;7044;53.286;8.534;2023-01-24T05:26:49;3.20;99.90
13944;DHT22;7044;53.286;8.534;2023-01-24T05:29:17;3.10;99.90
13944;DHT22;7044;53.286;8.534;2023-01-24T05:31:44;3.10;99.90
13944;DHT22;7044;53.286;8.534;2023-01-24T05:34:11;3.10;99.90
13944;DHT22;7044;53.286;8.534;2023-01-24T05:36:38;3.10;99.90
13944;DHT22;7044;53.286;8.534;2023-01-24T05:39:04;3.10;99.90
13944;DHT22;7044;53.286;8.534;2023-01-24T05:41:31;3.10;99.90
13944;DHT22;7044;53.286;8.534;2023-01-24T05:43:58;3.10;99.90
13944;DHT22;7044;53.286;8.534;2023-01-24T05:46:27;3.10;99.90
13944;DHT22;7044;53.286;8.534;2023-01-24T05:48:54;3.10;99.90
13944;DHT22;7044;53.286;8.534;2023-01-24T05:51:21;3.10;99.90
13944;DHT22;7044;53.286;8.534;2023-01-24T05:53:48;3.10;99.90
13944;DHT22;7044;53.286;8.534;2023-01-24T05:56:17;3.10;99.90
13944;DHT22;7044;53.286;8.534;2023-01-24T05:58:45;3.10;99.90
13944;DHT22;7044;53.286;8.534;2023-01-24T06:01:13;3.10;99.90
13944;DHT22;7044;53.286;8.534;2023-01-24T06:03:43;3.30;99.90
13944;DHT22;7044;53.286;8.534;2023-01-24T06:06:11;3.10;99.90
13944;DHT22;7044;53.286;8.534;2023-01-24T06:08:38;3.10;99.90
13944;DHT22;7044;53.286;8.534;2023-01-24T06:11:07;3.10;99.90
13944;DHT22;7044;53.286;8.534;2023-01-24T06:13:34;3.10;99.90
13944;DHT22;7044;53.286;8.534;2023-01-24T06:16:03;3.10;99.90
13944;DHT22;7044;53.286;8.534;2023-01-24T06:18:30;3.10;99.90
13944;DHT22;7044;53.286;8.534;2023-01-24T06:21:03;3.10;99.90
13944;DHT22;7044;53.286;8.534;2023-01-24T06:23:31;3.20;99.90
13944;DHT22;7044;53.286;8.534;2023-01-24T06:25:58;3.10;99.90
13944;DHT22;7044;53.286;8.534;2023-01-24T06:28:25;3.00;99.90
13944;DHT22;7044;53.286;8.534;2023-01-24T06:30:59;3.00;99.90
13944;DHT22;7044;53.286;8.534;2023-01-24T06:33:35;3.10;99.90
13944;DHT22;7044;53.286;8.534;2023-01-24T06:36:28;3.10;99.90
13944;DHT22;7044;53.286;8.534;2023-01-24T06:38:58;3.10;99.90
13944;DHT22;7044;53.286;8.534;2023-01-24T06:41:25;3.10;99.90
13944;DHT22;7044;53.286;8.534;2023-01-24T06:43:52;3.10;99.90
13944;DHT22;7044;53.286;8.534;2023-01-24T06:46:19;3.10;99.90
13944;DHT22;7044;53.286;8.534;2023-01-24T06:48:46;3.10;99.90
13944;DHT22;7044;53.286;8.534;2023-01-24T06:51:13;3.10;99.90
13944;DHT22;7044;53.286;8.534;2023-01-24T06:53:42;3.10;99.90
13944;DHT22;7044;53.286;8.534;2023-01-24T06:56:08;3.10;99.90
13944;DHT22;7044;53.286;8.534;2023-01-24T06:58:35;3.10;99.90
13944;DHT22;7044;53.286;8.534;2023-01-24T07:01:02;3.10;99.90
13944;DHT22;7044;53.286;8.534;2023-01-24T07:03:29;3.10;99.90
13944;DHT22;7044;53.286;8.534;2023-01-24T07:05:56;3.10;99.90
13944;DHT22;7044;53.286;8.534;2023-01-24T07:08:23;3.00;99.90
13944;DHT22;7044;53.286;8.534;2023-01-24T07:10:51;3.00;99.90
13944;DHT22;7044;53.286;8.534;2023-01-24T07:13:18;3.10;99.90
13944;DHT22;7044;53.286;8.534;2023-01-24T07:15:45;3.00;99.90
13944;DHT22;7044;53.286;8.534;2023-01-24T07:18:13;3.10;99.90
13944;DHT22;7044;53.286;8.534;2023-01-24T07:20:41;3.10;99.90
13944;DHT22;7044;53.286;8.534;2023-01-24T07:23:19;3.00;99.90
13944;DHT22;7044;53.286;8.534;2023-01-24T07:25:47;3.00;99.90
13944;DHT22;7044;53.286;8.534;2023-01-24T07:28:15;3.00;99.90
13944;DHT22;7044;53.286;8.534;2023-01-24T07:30:42;3.00;99.90
13944;DHT22;7044;53.286;8.534;2023-01-24T07:33:10;3.00;99.90
13944;DHT22;7044;53.286;8.534;2023-01-24T07:35:38;3.00;99.90
13944;DHT22;7044;53.286;8.534;2023-01-24T07:38:05;3.00;99.90
13944;DHT22;7044;53.286;8.534;2023-01-24T07:40:32;3.00;99.90
13944;DHT22;7044;53.286;8.534;2023-01-24T07:42:59;3.10;99.90
13944;DHT22;7044;53.286;8.534;2023-01-24T07:45:27;3.00;99.90
13944;DHT22;7044;53.286;8.534;2023-01-24T07:47:55;3.10;99.90
13944;DHT22;7044;53.286;8.534;2023-01-24T07:50:22;3.10;99.90
13944;DHT22;7044;53.286;8.534;2023-01-24T07:52:50;3.10;99.90
13944;DHT22;7044;53.286;8.534;2023-01-24T07:55:17;3.10;99.90
13944;DHT22;7044;53.286;8.534;2023-01-24T07:57:44;3.00;99.90
13944;DHT22;7044;53.286;8.534;2023-01-24T08:00:12;3.00;99.90
13944;DHT22;7044;53.286;8.534;2023-01-24T08:02:40;3.00;99.90
13944;DHT22;7044;53.286;8.534;2023-01-24T08:05:07;3.00;99.90
13944;DHT22;7044;53.286;8.534;2023-01-24T08:07:34;3.00;99.90
13944;DHT22;7044;53.286;8.534;2023-01-24T08:10:01;3.00;99.90
13944;DHT22;7044;53.286;8.534;2023-01-24T08:12:28;3.00;99.90
13944;DHT22;7044;53.286;8.534;2023-01-24T08:14:55;3.00;99.90
13944;DHT22;7044;53.286;8.534;2023-01-24T08:17:21;3.00;99.90
13944;DHT22;7044;53.286;8.534;2023-01-24T08:19:49;3.00;99.90
13944;DHT22;7044;53.286;8.534;2023-01-24T08:22:16;3.00;99.90
13944;DHT22;7044;53.286;8.534;2023-01-24T08:24:43;3.00;99.90
13944;DHT22;7044;53.286;8.534;2023-01-24T08:27:10;3.00;99.90
13944;DHT22;7044;53.286;8.534;2023-01-24T08:29:37;3.00;99.90
13944;DHT22;7044;53.286;8.534;2023-01-24T08:32:04;3.00;99.90
13944;DHT22;7044;53.286;8.534;2023-01-24T08:34:31;3.00;99.90
13944;DHT22;7044;53.286;8.534;2023-01-24T08:36:59;3.60;99.90
13944;DHT22;7044;53.286;8.534;2023-01-24T08:39:26;3.00;99.90
13944;DHT22;7044;53.286;8.534;2023-01-24T08:41:52;3.00;99.90
13944;DHT22;7044;53.286;8.534;2023-01-24T08:44:19;3.00;99.90
13944;DHT22;7044;53.286;8.534;2023-01-24T08:46:46;3.00;99.90
13944;DHT22;7044;53.286;8.534;2023-01-24T08:49:13;3.00;99.90
13944;DHT22;7044;53.286;8.534;2023-01-24T08:51:39;3.00;99.90
13944;DHT22;7044;53.286;8.534;2023-01-24T08:54:08;3.00;99.90
13944;DHT22;7044;53.286;8.534;2023-01-24T08:56:34;3.10;99.90
13944;DHT22;7044;53.286;8.534;2023-01-24T08:59:01;3.10;99.90
13944;DHT22;7044;53.286;8.534;2023-01-24T09:01:28;3.10;99.90
13944;DHT22;7044;53.286;8.534;2023-01-24T09:03:57;3.10;99.90
13944;DHT22;7044;53.286;8.534;2023-01-24T09:06:25;3.10;99.90
13944;DHT22;7044;53.286;8.534;2023-01-24T09:08:52;3.10;99.90
13944;DHT22;7044;53.286;8.534;2023-01-24T09:11:21;3.00;99.90
13944;DHT22;7044;53.286;8.534;2023-01-24T09:13:48;3.00;99.90
13944;DHT22;7044;53.286;8.534;2023-01-24T09:16:15;3.00;99.90
13944;DHT22;7044;53.286;8.534;2023-01-24T09:18:42;3.00;99.90
13944;DHT22;7044;53.286;8.534;2023-01-24T09:21:08;3.00;99.90
13944;DHT22;7044;53.286;8.534;2023-01-24T09:23:35;2.90;99.90
13944;DHT22;7044;53.286;8.534;2023-01-24T09:26:03;2.90;99.90
13944;DHT22;7044;53.286;8.534;2023-01-24T09:28:31;2.90;99.90
13944;DHT22;7044;53.286;8.534;2023-01-24T09:30:59;2.80;99.90
13944;DHT22;7044;53.286;8.534;2023-01-24T09:33:27;2.90;99.90
13944;DHT22;7044;53.286;8.534;2023-01-24T09:35:56;2.90;99.90
13944;DHT22;7044;53.286;8.534;2023-01-24T09:38:23;3.10;99.90
13944;DHT22;7044;53.286;8.534;2023-01-24T09:40:56;3.00;99.90
13944;DHT22;7044;53.286;8.534;2023-01-24T09:43:42;3.00;99.90
13944;DHT22;7044;53.286;8.534;2023-01-24T09:46:23;3.00;99.90
13944;DHT22;7044;53.286;8.534;2023-01-24T09:48:58;3.00;99.90
13944;DHT22;7044;53.286;8.534;2023-01-24T09:51:29;3.00;99.90
13944;DHT22;7044;53.286;8.534;2023-01-24T09:53:59;3.00;99.90
13944;DHT22;7044;53.286;8.534;2023-01-24T09:56:32;3.00;99.90
13944;DHT22;7044;53.286;8.534;2023-01-24T09:59:12;3.00;99.90
13944;DHT22;7044;53.286;8.534;2023-01-24T10:01:40;3.00;99.90
13944;DHT22;7044;53.286;8.534;2023-01-24T10:04:14;3.10;99.90
13944;DHT22;7044;53.286;8.534;2023-01-24T10:06:48;3.10;99.90
13944;DHT22;7044;53.286;8.534;2023-01-24T10:09:19;3.00;99.90
13944;DHT22;7044;53.286;8.534;2023-01-24T10:11:54;3.00;99.90
13944;DHT22;7044;53.286;8.534;2023-01-24T10:14:49;3.00;99.90
13944;DHT22;7044;53.286;8.534;2023-01-24T10:17:28;3.10;99.90
13944;DHT22;7044;53.286;8.534;2023-01-24T10:20:22;3.10;99.90
13944;DHT22;7044;53.286;8.534;2023-01-24T10:23:08;3.10;99.90
13944;DHT22;7044;53.286;8.534;2023-01-24T10:25:49;3.10;99.90
13944;DHT22;7044;53.286;8.534;2023-01-24T10:28:20;3.10;99.90
13944;DHT22;7044;53.286;8.534;2023-01-24T10:31:00;3.10;99.90
13944;DHT22;7044;53.286;8.534;2023-01-24T10:33:31;3.10;99.90
13944;DHT22;7044;53.286;8.534;2023-01-24T10:36:03;3.10;99.90
13944;DHT22;7044;53.286;8.534;2023-01-24T10:38:32;3.10;99.90
13944;DHT22;7044;53.286;8.534;2023-01-24T10:41:15;3.10;99.90
13944;DHT22;7044;53.286;8.534;2023-01-24T10:43:46;3.00;99.90
13944;DHT22;7044;53.286;8.534;2023-01-24T10:46:37;3.00;99.90
13944;DHT22;7044;53.286;8.534;2023-01-24T10:49:15;3.10;99.90
13944;DHT22;7044;53.286;8.534;2023-01-24T10:52:08;3.00;99.90
13944;DHT22;7044;53.286;8.534;2023-01-24T10:54:43;3.10;99.90
13944;DHT22;7044;53.286;8.534;2023-01-24T10:57:18;3.00;99.90
13944;DHT22;7044;53.286;8.534;2023-01-24T10:59:46;3.00;99.90
13944;DHT22;7044;53.286;8.534;2023-01-24T11:02:20;3.00;99.90
13944;DHT22;7044;53.286;8.534;2023-01-24T11:04:50;3.00;99.90
13944;DHT22;7044;53.286;8.534;2023-01-24T11:07:27;3.10;99.90
13944;DHT22;7044;53.286;8.534;2023-01-24T11:09:55;3.10;99.90
13944;DHT22;7044;53.286;8.534;2023-01-24T11:12:27;3.10;99.90
13944;DHT22;7044;53.286;8.534;2023-01-24T11:14:54;3.10;99.90
13944;DHT22;7044;53.286;8.534;2023-01-24T11:17:34;3.10;99.90
13944;DHT22;7044;53.286;8.534;2023-01-24T11:20:15;3.10;99.90
13944;DHT22;7044;53.286;8.534;2023-01-24T11:22:49;3.10;99.90
13944;DHT22;7044;53.286;8.534;2023-01-24T11:25:16;3.10;99.90
13944;DHT22;7044;53.286;8.534;2023-01-24T11:27:47;3.10;99.90
13944;DHT22;7044;53.286;8.534;2023-01-24T11:30:18;3.10;99.90
13944;DHT22;7044;53.286;8.534;2023-01-24T11:32:57;3.20;99.90
13944;DHT22;7044;53.286;8.534;2023-01-24T11:35:30;3.10;99.90
13944;DHT22;7044;53.286;8.534;2023-01-24T11:38:18;3.10;99.90
13944;DHT22;7044;53.286;8.534;2023-01-24T11:40:51;3.10;99.90
13944;DHT22;7044;53.286;8.534;2023-01-24T11:43:31;3.10;99.90
13944;DHT22;7044;53.286;8.534;2023-01-24T11:46:15;3.10;99.90
13944;DHT22;7044;53.286;8.534;2023-01-24T11:48:51;3.10;99.90
13944;DHT22;7044;53.286;8.534;2023-01-24T11:51:23;3.10;99.90
13944;DHT22;7044;53.286;8.534;2023-01-24T11:54:12;3.10;99.90
13944;DHT22;7044;53.286;8.534;2023-01-24T11:56:56;3.10;99.90
13944;DHT22;7044;53.286;8.534;2023-01-24T11:59:52;3.10;99.90
13944;DHT22;7044;53.286;8.534;2023-01-24T12:02:36;3.10;99.90
13944;DHT22;7044;53.286;8.534;2023-01-24T12:05:41;3.10;99.90
13944;DHT22;7044;53.286;8.534;2023-01-24T12:08:24;3.10;99.90
13944;DHT22;7044;53.286;8.534;2023-01-24T12:11:01;3.10;99.90
13944;DHT22;7044;53.286;8.534;2023-01-24T12:13:36;3.20;99.90
13944;DHT22;7044;53.286;8.534;2023-01-24T12:16:18;3.10;99.90
13944;DHT22;7044;53.286;8.534;2023-01-24T12:18:56;3.10;99.90
13944;DHT22;7044;53.286;8.534;2023-01-24T12:21:26;3.10;99.90
13944;DHT22;7044;53.286;8.534;2023-01-24T12:23:56;3.10;99.90
13944;DHT22;7044;53.286;8.534;2023-01-24T12:26:27;3.10;99.90
13944;DHT22;7044;53.286;8.534;2023-01-24T12:28:59;3.10;99.90
13944;DHT22;7044;53.286;8.534;2023-01-24T12:31:35;3.10;99.90
13944;DHT22;7044;53.286;8.534;2023-01-24T12:34:12;3.10;99.90
13944;DHT22;7044;53.286;8.534;2023-01-24T12:36:48;3.10;99.90
13944;DHT22;7044;53.286;8.534;2023-01-24T12:39:20;3.10;99.90
13944;DHT22;7044;53.286;8.534;2023-01-24T12:41:53;3.10;99.90
13944;DHT22;7044;53.286;8.534;2023-01-24T12:44:27;3.00;99.90
13944;DHT22;7044;53.286;8.534;2023-01-24T12:47:07;3.00;99.90
13944;DHT22;7044;53.286;8.534;2023-01-24T12:49:46;3.00;99.90
13944;DHT22;7044;53.286;8.534;2023-01-24T12:52:22;3.00;99.90
13944;DHT22;7044;53.286;8.534;2023-01-24T12:54:55;2.90;99.90
13944;DHT22;7044;53.286;8.534;2023-01-24T12:57:26;2.90;99.90
13944;DHT22;7044;53.286;8.534;2023-01-24T12:59:54;2.90;99.90
13944;DHT22;7044;53.286;8.534;2023-01-24T13:02:40;2.90;99.90
13944;DHT22;7044;53.286;8.534;2023-01-24T13:05:26;2.90;99.90
13944;DHT22;7044;53.286;8.534;2023-01-24T13:08:08;2.90;99.90
13944;DHT22;7044;53.286;8.534;2023-01-24T13:10:47;3.00;99.90
13944;DHT22;7044;53.286;8.534;2023-01-24T13:13:19;2.80;99.90
13944;DHT22;7044;53.286;8.534;2023-01-24T13:15:58;2.90;99.90
13944;DHT22;7044;53.286;8.534;2023-01-24T13:18:41;2.80;99.90
13944;DHT22;7044;53.286;8.534;2023-01-24T13:21:15;2.90;99.90
13944;DHT22;7044;53.286;8.534;2023-01-24T13:24:09;2.90;99.90
13944;DHT22;7044;53.286;8.534;2023-01-24T13:27:00;2.90;99.90
13944;DHT22;7044;53.286;8.534;2023-01-24T13:29:41;3.00;99.90
13944;DHT22;7044;53.286;8.534;2023-01-24T13:32:14;3.00;99.90
13944;DHT22;7044;53.286;8.534;2023-01-24T13:34:43;2.90;99.90
13944;DHT22;7044;53.286;8.534;2023-01-24T13:37:21;2.90;99.90
13944;DHT22;7044;53.286;8.534;2023-01-24T13:40:00;2.90;99.90
13944;DHT22;7044;53.286;8.534;2023-01-24T13:42:33;2.90;99.90
13944;DHT22;7044;53.286;8.534;2023-01-24T13:48:46;2.90;99.90
13944;DHT22;7044;53.286;8.534;2023-01-24T13:51:34;2.90;99.90
13944;DHT22;7044;53.286;8.534;2023-01-24T13:54:02;2.90;99.90
13944;DHT22;7044;53.286;8.534;2023-01-24T13:56:30;2.90;99.90
13944;DHT22;7044;53.286;8.534;2023-01-24T13:58:59;2.90;99.90
13944;DHT22;7044;53.286;8.534;2023-01-24T14:01:26;2.70;99.90
13944;DHT22;7044;53.286;8.534;2023-01-24T14:03:58;2.90;99.90
13944;DHT22;7044;53.286;8.534;2023-01-24T14:06:27;2.90;99.90
13944;DHT22;7044;53.286;8.534;2023-01-24T14:09:13;2.90;99.90
13944;DHT22;7044;53.286;8.534;2023-01-24T14:11:56;2.90;99.90
13944;DHT22;7044;53.286;8.534;2023-01-24T14:17:48;2.80;99.90
13944;DHT22;7044;53.286;8.534;2023-01-24T14:23:13;2.80;99.90
13944;DHT22;7044;53.286;8.534;2023-01-24T14:25:48;2.80;99.90
13944;DHT22;7044;53.286;8.534;2023-01-24T14:28:23;3.10;99.90
13944;DHT22;7044;53.286;8.534;2023-01-24T14:30:55;2.80;99.90
13944;DHT22;7044;53.286;8.534;2023-01-24T14:33:45;2.80;99.90
13944;DHT22;7044;53.286;8.534;2023-01-24T14:36:31;2.80;99.90
13944;DHT22;7044;53.286;8.534;2023-01-24T14:39:16;2.80;99.90
13944;DHT22;7044;53.286;8.534;2023-01-24T14:41:45;3.40;99.90
13944;DHT22;7044;53.286;8.534;2023-01-24T14:44:20;2.80;99.90
13944;DHT22;7044;53.286;8.534;2023-01-24T14:46:52;2.90;99.90
13944;DHT22;7044;53.286;8.534;2023-01-24T14:49:26;2.80;99.90
13944;DHT22;7044;53.286;8.534;2023-01-24T14:51:53;2.80;99.90
13944;DHT22;7044;53.286;8.534;2023-01-24T14:54:22;2.80;99.90
13944;DHT22;7044;53.286;8.534;2023-01-24T14:56:50;2.70;99.90
13944;DHT22;7044;53.286;8.534;2023-01-24T14:59:19;2.80;99.90
13944;DHT22;7044;53.286;8.534;2023-01-24T15:01:49;2.80;99.90
13944;DHT22;7044;53.286;8.534;2023-01-24T15:04:23;2.70;99.90
13944;DHT22;7044;53.286;8.534;2023-01-24T15:07:05;2.70;99.90
13944;DHT22;7044;53.286;8.534;2023-01-24T15:09:32;2.80;99.90
13944;DHT22;7044;53.286;8.534;2023-01-24T15:12:17;2.70;99.90
13944;DHT22;7044;53.286;8.534;2023-01-24T15:14:49;2.70;99.90
13944;DHT22;7044;53.286;8.534;2023-01-24T15:17:20;2.70;99.90
13944;DHT22;7044;53.286;8.534;2023-01-24T15:19:49;2.70;99.90
13944;DHT22;7044;53.286;8.534;2023-01-24T15:22:20;2.60;99.90
13944;DHT22;7044;53.286;8.534;2023-01-24T15:24:52;2.60;99.90
13944;DHT22;7044;53.286;8.534;2023-01-24T15:27:32;2.60;99.90
13944;DHT22;7044;53.286;8.534;2023-01-24T15:30:16;2.60;99.90
13944;DHT22;7044;53.286;8.534;2023-01-24T15:32:45;2.60;99.90
13944;DHT22;7044;53.286;8.534;2023-01-24T15:35:35;2.60;99.90
13944;DHT22;7044;53.286;8.534;2023-01-24T15:38:11;2.60;99.90
13944;DHT22;7044;53.286;8.534;2023-01-24T15:40:49;2.60;99.90
13944;DHT22;7044;53.286;8.534;2023-01-24T15:43:19;2.60;99.90
13944;DHT22;7044;53.286;8.534;2023-01-24T15:46:06;2.60;99.90
13944;DHT22;7044;53.286;8.534;2023-01-24T15:48:56;2.60;99.90
13944;DHT22;7044;53.286;8.534;2023-01-24T15:51:31;2.50;99.90
13944;DHT22;7044;53.286;8.534;2023-01-24T15:53:58;2.50;99.90
13944;DHT22;7044;53.286;8.534;2023-01-24T15:56:27;2.60;99.90
13944;DHT22;7044;53.286;8.534;2023-01-24T15:58:54;2.60;99.90
13944;DHT22;7044;53.286;8.534;2023-01-24T16:01:26;2.50;99.90
13944;DHT22;7044;53.286;8.534;2023-01-24T16:03:54;2.50;99.90
13944;DHT22;7044;53.286;8.534;2023-01-24T16:06:21;2.50;99.90
13944;DHT22;7044;53.286;8.534;2023-01-24T16:08:47;2.50;99.90
13944;DHT22;7044;53.286;8.534;2023-01-24T16:11:17;2.50;99.90
13944;DHT22;7044;53.286;8.534;2023-01-24T16:13:48;2.40;99.90
13944;DHT22;7044;53.286;8.534;2023-01-24T16:16:22;2.40;99.90
13944;DHT22;7044;53.286;8.534;2023-01-24T16:18:49;2.50;99.90
13944;DHT22;7044;53.286;8.534;2023-01-24T16:21:16;2.40;99.90
13944;DHT22;7044;53.286;8.534;2023-01-24T16:23:43;2.40;99.90
13944;DHT22;7044;53.286;8.534;2023-01-24T16:26:19;2.50;99.90
13944;DHT22;7044;53.286;8.534;2023-01-24T16:28:46;2.50;99.90
13944;DHT22;7044;53.286;8.534;2023-01-24T16:31:13;2.50;99.90
13944;DHT22;7044;53.286;8.534;2023-01-24T16:33:41;2.40;99.90
13944;DHT22;7044;53.286;8.534;2023-01-24T16:36:10;2.40;99.90
13944;DHT22;7044;53.286;8.534;2023-01-24T16:38:38;2.50;99.90
13944;DHT22;7044;53.286;8.534;2023-01-24T16:41:05;2.50;99.90